Terminal Aerodrome Forecast
Issued by NWS Portland, ME

Home | Current Version | Previous Version | Text Only | Print | Product List | Glossary On
Versions: 1 2 3 4 5 6 7 8 9 10 11 12 13 14 15 16 17 18 19 20
000
FTUS41 KGYX 170525
TAFPWM
TAF
KPWM 170525Z 1706/1806 00000KT P6SM SCT050
      TEMPO 1706/1710 BKN050
     FM171300 29003KT P6SM SCT060
     FM171800 18008KT P6SM SCT100 BKN250
     FM180000 VRB03KT P6SM SCT100 BKN250=

USA.gov is the U.S. government's official web portal to all federal, state and local government web resources and services.